Time;durP1;ratioP1;P1;durP2;ratioP2;P2;SDS_P1;SDS_P2;PMS_P1;PMS_P2;Temp;Humidity;BMP_temperature;BMP_pressure;BME280_temperature;BME280_humidity;BME280_pressure;Samples;Min_cycle;Max_cycle;Signal;HPM_P1;HPM_P2
2022/09/18 00:08:07;;;;;;;5.53;3.28;;;23.20;37.00;;;;;;20829554;28;20172;-57
2022/09/18 00:18:09;;;;;;;;;;;23.10;38.60;;;;;;20832825;28;20478;-57
2022/09/18 00:28:11;;;;;;;4.45;2.90;;;23.00;38.90;;;;;;20842841;28;20313;-57
2022/09/18 00:38:13;;;;;;;4.27;2.97;;;23.00;39.60;;;;;;20841637;28;20081;-55
2022/09/18 00:48:14;;;;;;;7.07;3.03;;;22.80;40.40;;;;;;20841864;28;20057;-56
2022/09/18 00:58:16;;;;;;;4.05;2.65;;;22.80;41.70;;;;;;20841143;28;20084;-55
2022/09/18 01:08:24;;;;;;;6.30;2.75;;;22.70;42.00;;;;;;20839136;28;20391;-56
2022/09/18 01:18:49;;;;;;;7.57;2.80;;;22.70;42.80;;;;;;20838746;28;20060;-55
2022/09/18 01:28:59;;;;;;;3.78;2.50;;;22.60;42.70;;;;;;20837620;28;20069;-57
2022/09/18 01:39:19;;;;;;;7.57;3.28;;;22.50;41.70;;;;;;20836789;28;20057;-57
2022/09/18 01:49:31;;;;;;;5.60;2.60;;;22.40;43.80;;;;;;20836120;28;20080;-56
2022/09/18 01:59:49;;;;;;;3.30;2.42;;;22.30;44.80;;;;;;20835339;28;20114;-57
2022/09/18 02:09:53;;;;;;;5.03;2.88;;;22.20;42.20;;;;;;20834864;28;20124;-56
2022/09/18 02:20:07;;;;;;;4.55;2.38;;;22.10;43.20;;;;;;20834626;28;20055;-57
2022/09/18 02:30:12;;;;;;;4.78;2.47;;;22.10;44.30;;;;;;20833119;28;20501;-56
2022/09/18 02:40:17;;;;;;;4.15;2.63;;;22.10;44.90;;;;;;20832260;28;20177;-57
2022/09/18 02:50:42;;;;;;;5.40;2.30;;;22.00;44.60;;;;;;20831472;28;20072;-55
2022/09/18 03:00:47;;;;;;;5.55;2.78;;;22.00;43.50;;;;;;20830620;28;20104;-55
2022/09/18 03:10:50;;;;;;;5.80;2.58;;;21.90;42.80;;;;;;20830608;28;20045;-55
2022/09/18 03:20:53;;;;;;;4.47;2.47;;;21.90;42.20;;;;;;20830543;28;20050;-56
2022/09/18 03:30:56;;;;;;;4.13;2.47;;;21.70;42.50;;;;;;20828495;28;20119;-55
2022/09/18 03:41:01;;;;;;;6.40;2.47;;;21.60;43.10;;;;;;20829229;28;20597;-55
2022/09/18 03:51:04;;;;;;;5.15;2.60;;;21.60;43.70;;;;;;20831536;28;20053;-55
2022/09/18 04:01:06;;;;;;;3.72;2.05;;;21.60;44.40;;;;;;20845003;28;20057;-55
2022/09/18 04:11:09;;;;;;;5.43;2.78;;;21.50;45.40;;;;;;20844711;28;20077;-56
2022/09/18 04:21:13;;;;;;;5.85;2.75;;;21.50;46.20;;;;;;20843573;28;20053;-57
2022/09/18 04:31:15;;;;;;;5.18;3.20;;;21.40;47.00;;;;;;20842519;28;20406;-56
2022/09/18 04:41:17;;;;;;;7.03;2.90;;;21.30;47.90;;;;;;20842567;28;20049;-55
2022/09/18 04:51:19;;;;;;;4.43;2.50;;;21.30;48.60;;;;;;20840866;28;20490;-56
2022/09/18 05:01:22;;;;;;;3.58;2.65;;;21.20;49.40;;;;;;20839346;28;20085;-56
2022/09/18 05:11:24;;;;;;;4.55;2.40;;;21.10;49.90;;;;;;20839852;28;20045;-56
2022/09/18 05:21:26;;;;;;;5.38;2.90;;;21.20;50.50;;;;;;20821367;28;20453;-57
2022/09/18 05:31:27;;;;;;;6.78;2.92;;;21.20;51.20;;;;;;20837613;28;20049;-55
2022/09/18 05:41:29;;;;;;;4.78;2.70;;;21.10;52.00;;;;;;20819309;28;20050;-56
2022/09/18 05:51:31;;;;;;;4.22;2.78;;;21.20;52.90;;;;;;20836544;28;20041;-56
2022/09/18 06:01:33;;;;;;;6.20;2.92;;;21.10;52.90;;;;;;20836650;28;20432;-56
2022/09/18 06:11:35;;;;;;;4.32;2.85;;;21.10;53.20;;;;;;20834655;28;20128;-56
2022/09/18 06:21:37;;;;;;;8.53;3.37;;;21.10;53.50;;;;;;20833350;28;20052;-56
2022/09/18 06:31:39;;;;;;;6.65;3.10;;;21.20;54.00;;;;;;20832425;28;20569;-56
2022/09/18 06:41:41;;;;;;;6.97;3.50;;;21.10;54.50;;;;;;20832879;28;20382;-56
2022/09/18 06:51:44;;;;;;;5.90;3.17;;;21.10;55.50;;;;;;20831616;28;20132;-57
2022/09/18 07:01:47;;;;;;;9.35;3.58;;;21.10;56.40;;;;;;20830796;28;20049;-57
2022/09/18 07:11:49;;;;;;;;;;;21.20;56.70;;;;;;20831878;28;20132;-58
2022/09/18 07:21:51;;;;;;;6.43;2.97;;;21.20;56.80;;;;;;20829584;28;20011;-56
2022/09/18 07:31:53;;;;;;;9.15;3.78;;;21.30;57.40;;;;;;20828404;28;20504;-56
2022/09/18 07:41:54;;;;;;;7.07;3.80;;;21.60;57.00;;;;;;20828670;28;20049;-57
2022/09/18 07:51:56;;;;;;;8.13;3.88;;;21.70;57.00;;;;;;20829045;28;20124;-55
2022/09/18 08:01:58;;;;;;;5.90;3.65;;;21.80;56.70;;;;;;20827823;28;20103;-57
2022/09/18 08:11:59;;;;;;;5.82;3.03;;;22.10;56.70;;;;;;20826550;28;20489;-55
2022/09/18 08:22:03;;;;;;;10.65;3.65;;;23.20;51.40;;;;;;20746308;28;20436;-57
2022/09/18 08:32:05;;;;;;;5.90;3.17;;;23.80;51.20;;;;;;20744868;28;20399;-52
2022/09/18 08:42:29;;;;;;;12.40;6.63;;;24.20;51.30;;;;;;20753380;28;20156;-53
2022/09/18 08:52:37;;;;;;;5.78;3.65;;;24.30;52.10;;;;;;20814425;28;20061;-57
2022/09/18 09:02:42;;;;;;;5.05;3.58;;;24.40;52.20;;;;;;20839973;28;20505;-57
2022/09/18 09:13:08;;;;;;;6.15;3.63;;;23.80;53.90;;;;;;20839638;28;20417;-55
2022/09/18 09:23:45;;;;;;;6.60;4.28;;;23.80;54.50;;;;;;20839653;28;20447;-56
2022/09/18 09:34:13;;;;;;;7.70;3.85;;;23.70;54.70;;;;;;20347100;28;20155;-56
2022/09/18 09:44:29;;;;;;;4.22;3.30;;;23.70;54.80;;;;;;20346885;28;20051;-57
2022/09/18 09:54:31;;;;;;;7.55;3.40;;;23.90;54.40;;;;;;20346894;28;20150;-57
2022/09/18 10:04:45;;;;;;;6.00;3.08;;;24.10;54.50;;;;;;20545233;28;20137;-56
2022/09/18 10:14:49;;;;;;;7.15;3.22;;;24.30;54.20;;;;;;20816875;28;20391;-55
2022/09/18 10:25:04;;;;;;;5.35;3.05;;;24.50;53.70;;;;;;20833147;28;20069;-56
2022/09/18 10:35:41;;;;;;;6.07;2.72;;;24.50;53.60;;;;;;20832493;28;20104;-56
2022/09/18 10:45:51;;;;;;;6.25;3.30;;;24.60;53.40;;;;;;20342729;29;20047;-57
2022/09/18 10:55:52;;;;;;;4.40;2.90;;;25.00;52.60;;;;;;20341790;28;20059;-56
2022/09/18 11:06:13;;;;;;;5.07;2.97;;;25.10;51.90;;;;;;20341109;28;20052;-55
2022/09/18 11:16:29;;;;;;;4.32;2.78;;;25.50;51.80;;;;;;20527848;28;20195;-56
2022/09/18 11:26:31;;;;;;;5.55;2.40;;;25.70;50.90;;;;;;20829288;28;20052;-54
2022/09/18 11:36:34;;;;;;;8.13;2.50;;;26.00;50.00;;;;;;20828513;28;20049;-56
2022/09/18 11:46:35;;;;;;;4.18;2.00;;;26.10;49.10;;;;;;20810447;28;20383;-58
2022/09/18 11:56:46;;;;;;;5.70;2.60;;;26.30;47.80;;;;;;20828587;28;20457;-56
2022/09/18 12:06:51;;;;;;;4.03;2.03;;;26.70;47.40;;;;;;20803230;28;20302;-58
2022/09/18 12:17:01;;;;;;;6.30;2.88;;;27.10;46.90;;;;;;20832782;28;20148;-54
2022/09/18 12:27:13;;;;;;;38.93;33.60;;;27.30;47.80;;;;;;20815072;28;20104;-58
2022/09/18 12:37:36;;;;;;;6.72;1.98;;;27.50;45.40;;;;;;20833198;28;20461;-55
2022/09/18 12:47:41;;;;;;;5.15;1.83;;;27.60;44.70;;;;;;20838282;28;20144;-53
2022/09/18 12:57:42;;;;;;;3.63;2.00;;;27.90;43.80;;;;;;20828011;28;20057;-54
2022/09/18 13:08:02;;;;;;;3.83;2.15;;;27.80;43.50;;;;;;20797398;28;20176;-54
2022/09/18 13:18:17;;;;;;;6.25;2.30;;;28.10;43.20;;;;;;20840199;28;20045;-56
2022/09/18 13:28:20;;;;;;;4.82;2.35;;;28.20;43.10;;;;;;20838339;28;20051;-55
2022/09/18 13:38:26;;;;;;;3.65;2.38;;;28.20;42.90;;;;;;20837454;28;20049;-56
2022/09/18 13:48:39;;;;;;;5.78;2.15;;;28.30;43.00;;;;;;20836976;28;20052;-57
2022/09/18 13:58:59;;;;;;;5.00;2.20;;;28.40;42.10;;;;;;20835933;28;20049;-57
2022/09/18 14:09:02;;;;;;;4.25;1.77;;;28.30;42.30;;;;;;20835383;28;20055;-56
2022/09/18 14:19:18;;;;;;;2.67;1.77;;;28.40;41.90;;;;;;20834726;28;20442;-56
2022/09/18 14:29:20;;;;;;;3.30;1.83;;;28.80;40.60;;;;;;20834466;28;20128;-55
2022/09/18 14:39:28;;;;;;;4.78;2.25;;;28.80;39.80;;;;;;20833022;28;20053;-54
2022/09/18 14:49:35;;;;;;;2.97;1.88;;;29.00;39.60;;;;;;20832477;28;20049;-57
2022/09/18 14:59:37;;;;;;;4.97;1.65;;;29.10;37.80;;;;;;20831907;28;20060;-56
2022/09/18 15:09:39;;;;;;;4.20;2.22;;;29.20;37.80;;;;;;20831176;28;20045;-55
2022/09/18 15:19:57;;;;;;;3.53;2.03;;;29.10;38.10;;;;;;20831119;28;20489;-58
2022/09/18 15:30:05;;;;;;;2.97;1.60;;;29.30;37.80;;;;;;20830698;28;20058;-57
2022/09/18 15:40:15;;;;;;;5.60;2.90;;;29.20;37.80;;;;;;20830060;28;20504;-56
2022/09/18 15:50:17;;;;;;;3.17;1.92;;;29.20;38.20;;;;;;20838144;28;20383;-55
2022/09/18 16:00:21;;;;;;;2.90;1.50;;;29.40;37.50;;;;;;20846717;28;20057;-55
2022/09/18 16:10:33;;;;;;;4.85;1.70;;;29.50;37.20;;;;;;20845379;28;20520;-56
2022/09/18 16:20:57;;;;;;;3.67;1.70;;;29.40;36.90;;;;;;20845198;28;20095;-56
2022/09/18 16:30:58;;;;;;;3.55;1.90;;;29.30;37.40;;;;;;20844159;28;20053;-55
2022/09/18 16:41:00;;;;;;;4.75;1.98;;;29.20;37.50;;;;;;20842763;28;20053;-55
2022/09/18 16:51:02;;;;;;;4.95;2.50;;;29.10;38.20;;;;;;20842374;28;20077;-57
2022/09/18 17:01:04;;;;;;;4.85;2.55;;;29.00;38.70;;;;;;20840585;28;20057;-55
2022/09/18 17:11:05;;;;;;;4.30;2.50;;;28.90;38.60;;;;;;20841880;28;20114;-56
2022/09/18 17:21:07;;;;;;;6.35;2.80;;;28.90;38.60;;;;;;20839096;28;20479;-55
2022/09/18 17:31:10;;;;;;;4.15;2.83;;;28.70;38.80;;;;;;20838715;28;20049;-55
2022/09/18 17:41:15;;;;;;;4.15;2.60;;;28.60;39.00;;;;;;20837726;28;20053;-56
2022/09/18 17:51:18;;;;;;;8.80;3.30;;;28.50;39.10;;;;;;20837839;28;20386;-55
2022/09/18 18:01:20;;;;;;;4.30;2.30;;;28.40;39.10;;;;;;20818173;28;20053;-55
2022/09/18 18:11:24;;;;;;;3.65;2.65;;;28.20;39.20;;;;;;20835369;28;20077;-57
2022/09/18 18:21:26;;;;;;;5.60;2.72;;;28.10;39.40;;;;;;20834071;28;20049;-55
2022/09/18 18:31:30;;;;;;;7.07;3.25;;;28.10;39.80;;;;;;20833907;28;20409;-56
2022/09/18 18:41:32;;;;;;;10.93;7.05;;;27.90;40.30;;;;;;20832406;28;20049;-54
2022/09/18 18:51:41;;;;;;;5.82;3.67;;;27.80;40.60;;;;;;20832478;28;20473;-55
2022/09/18 19:01:43;;;;;;;8.48;5.05;;;27.60;40.80;;;;;;20831829;28;20057;-56
2022/09/18 19:11:48;;;;;;;8.77;5.35;;;27.60;41.00;;;;;;20831039;28;20046;-55
2022/09/18 19:21:51;;;;;;;14.68;7.10;;;27.50;41.20;;;;;;20830773;28;20136;-55
2022/09/18 19:31:52;;;;;;;10.73;7.03;;;27.40;41.30;;;;;;20829611;28;20049;-56
2022/09/18 19:42:03;;;;;;;8.27;6.38;;;27.40;41.60;;;;;;20830825;28;20059;-56
2022/09/18 19:52:16;;;;;;;10.20;6.20;;;27.30;41.80;;;;;;20829073;28;20055;-57
2022/09/18 20:02:18;;;;;;;9.10;6.68;;;27.20;42.30;;;;;;20828773;28;20045;-57
2022/09/18 20:12:20;;;;;;;6.82;5.10;;;27.10;42.80;;;;;;20828407;28;20056;-57
2022/09/18 20:22:23;;;;;;;6.32;3.55;;;27.00;43.10;;;;;;20829236;28;20056;-56
2022/09/18 20:32:24;;;;;;;6.68;2.75;;;26.90;43.60;;;;;;20828191;28;20088;-58
2022/09/18 20:42:30;;;;;;;7.70;4.35;;;26.70;43.90;;;;;;20843407;28;20053;-56
2022/09/18 20:52:37;;;;;;;5.65;2.75;;;26.60;44.50;;;;;;20842931;28;20440;-59
2022/09/18 21:02:39;;;;;;;4.93;2.97;;;26.60;44.90;;;;;;20841128;28;20061;-57
2022/09/18 21:12:41;;;;;;;5.20;2.78;;;26.40;45.70;;;;;;20840875;28;20409;-56
2022/09/18 21:33:09;;;;;;;4.88;2.33;;;26.20;46.60;;;;;;20838312;28;20053;-58
2022/09/18 21:43:13;;;;;;;4.82;2.40;;;26.00;47.10;;;;;;20837867;28;20052;-56
2022/09/18 21:53:14;;;;;;;4.05;3.00;;;25.90;48.00;;;;;;20838254;28;20565;-56
2022/09/18 22:03:16;;;;;;;3.35;2.00;;;25.70;48.70;;;;;;20837959;28;20049;-57
2022/09/18 22:13:18;;;;;;;2.90;2.10;;;25.60;49.40;;;;;;20835860;28;20057;-57
2022/09/18 22:23:19;;;;;;;4.15;2.13;;;25.50;50.30;;;;;;20836260;28;20045;-56
2022/09/18 22:33:21;;;;;;;5.68;2.67;;;25.40;50.70;;;;;;20833796;28;20049;-55
2022/09/18 22:43:23;;;;;;;9.07;3.88;;;25.40;51.80;;;;;;20833506;28;20409;-55
2022/09/18 22:53:24;;;;;;;5.03;2.70;;;25.30;52.50;;;;;;20833195;28;20092;-56
2022/09/18 23:03:26;;;;;;;6.38;3.17;;;25.10;53.40;;;;;;20831944;28;20401;-54
2022/09/18 23:13:30;;;;;;;5.07;2.67;;;24.90;54.00;;;;;;20831347;28;20107;-57
2022/09/18 23:23:34;;;;;;;5.15;2.72;;;24.80;54.50;;;;;;20830613;28;20050;-57
2022/09/18 23:33:37;;;;;;;5.03;3.00;;;24.70;54.80;;;;;;20830078;28;20076;-56
2022/09/18 23:43:43;;;;;;;3.50;2.45;;;24.70;55.10;;;;;;20831004;28;20397;-54
2022/09/18 23:53:45;;;;;;;4.68;2.72;;;24.60;55.40;;;;;;20829622;28;20110;-56
